createdAt,value
2022-09-20T00:01:30.014Z,65.83
2022-09-20T00:03:58.830Z,65.04
2022-09-20T00:06:29.891Z,65.43
2022-09-20T00:08:57.120Z,64.86
2022-09-20T00:11:28.980Z,65.10
2022-09-20T00:13:58.423Z,65.03
2022-09-20T00:16:31.290Z,64.92
2022-09-20T00:18:59.504Z,65.49
2022-09-20T00:21:28.917Z,65.50
2022-09-20T00:23:57.595Z,65.59
2022-09-20T00:26:26.010Z,66.16
2022-09-20T00:28:52.874Z,66.42
2022-09-20T00:31:19.635Z,66.54
2022-09-20T00:34:06.269Z,66.67
2022-09-20T00:36:33.014Z,67.13
2022-09-20T00:39:02.772Z,67.92
2022-09-20T00:41:31.771Z,67.96
2022-09-20T00:44:01.310Z,68.50
2022-09-20T00:46:34.760Z,68.41
2022-09-20T00:49:14.884Z,68.86
2022-09-20T00:51:46.941Z,68.97
2022-09-20T00:54:20.301Z,69.51
2022-09-20T00:56:48.486Z,69.25
2022-09-20T00:59:19.870Z,69.83
2022-09-20T01:01:52.254Z,69.91
2022-09-20T01:04:22.019Z,70.11
2022-09-20T01:06:51.558Z,70.25
2022-09-20T01:09:18.163Z,70.67
2022-09-20T01:11:46.375Z,70.54
2022-09-20T01:14:17.173Z,71.08
2022-09-20T01:16:44.290Z,71.04
2022-09-20T01:19:33.634Z,71.00
2022-09-20T01:22:06.931Z,71.38
2022-09-20T01:24:47.565Z,71.23
2022-09-20T01:27:43.245Z,71.40
2022-09-20T01:30:14.542Z,71.93
2022-09-20T01:32:43.991Z,71.92
2022-09-20T01:35:12.239Z,72.29
2022-09-20T01:37:38.721Z,72.51
2022-09-20T01:40:36.164Z,72.34
2022-09-20T01:43:29.313Z,72.36
2022-09-20T01:46:02.636Z,72.12
2022-09-20T01:48:40.086Z,72.47
2022-09-20T01:51:09.679Z,72.57
2022-09-20T01:54:03.747Z,72.61
2022-09-20T01:56:38.836Z,72.86
2022-09-20T01:59:24.167Z,73.14
2022-09-20T02:01:54.205Z,72.66
2022-09-20T02:04:26.749Z,73.26
2022-09-20T02:07:16.536Z,73.21
2022-09-20T02:10:01.160Z,73.36
2022-09-20T02:12:50.313Z,73.43
2022-09-20T02:15:54.386Z,73.53
2022-09-20T02:18:48.730Z,73.46
2022-09-20T02:21:35.571Z,73.51
2022-09-20T02:24:27.225Z,73.65
2022-09-20T02:27:28.810Z,73.27
2022-09-20T02:30:27.378Z,73.06
2022-09-20T02:33:18.108Z,72.82
2022-09-20T02:35:55.247Z,72.62
2022-09-20T02:38:59.117Z,72.37
2022-09-20T02:41:47.347Z,72.73
2022-09-20T02:44:38.693Z,72.71
2022-09-20T02:47:43.308Z,73.00
2022-09-20T02:50:38.491Z,72.89
2022-09-20T02:53:24.138Z,73.35
2022-09-20T02:56:04.775Z,73.42
2022-09-20T02:59:05.240Z,73.71
2022-09-20T03:01:50.509Z,74.23
2022-09-20T03:04:45.396Z,73.96
2022-09-20T03:07:56.362Z,74.38
2022-09-20T03:10:36.900Z,74.52
2022-09-20T03:13:35.152Z,74.66
2022-09-20T03:16:31.223Z,74.64
2022-09-20T03:19:15.552Z,74.53
2022-09-20T03:22:26.454Z,74.56
2022-09-20T03:25:24.366Z,74.90
2022-09-20T03:27:56.382Z,74.55
2022-09-20T03:30:53.544Z,74.46
2022-09-20T03:33:44.119Z,74.76
2022-09-20T03:36:28.366Z,74.63
2022-09-20T03:39:25.448Z,73.95
2022-09-20T03:42:17.655Z,73.00
2022-09-20T03:45:05.926Z,73.27
2022-09-20T03:47:35.131Z,73.05
2022-09-20T03:50:18.508Z,72.88
2022-09-20T03:52:55.753Z,72.84
2022-09-20T03:55:56.108Z,73.05
2022-09-20T03:58:29.106Z,73.17
2022-09-20T04:01:28.310Z,72.36
2022-09-20T04:04:12.515Z,71.59
2022-09-20T04:06:54.090Z,71.16
2022-09-20T04:09:43.836Z,71.14
2022-09-20T04:12:27.949Z,71.16
2022-09-20T04:15:20.977Z,71.52
2022-09-20T04:18:24.874Z,71.06
2022-09-20T04:21:22.915Z,70.55
2022-09-20T04:24:12.517Z,70.18
2022-09-20T04:26:47.174Z,70.13
2022-09-20T04:29:36.406Z,70.06
2022-09-20T04:32:10.521Z,70.34
2022-09-20T04:35:25.547Z,70.11
2022-09-20T04:37:53.627Z,69.93
2022-09-20T04:40:34.763Z,69.47
2022-09-20T04:43:07.404Z,69.98
2022-09-20T04:46:11.376Z,70.50
2022-09-20T04:49:00.914Z,71.37
2022-09-20T04:51:48.768Z,71.73
2022-09-20T04:54:53.789Z,71.25
2022-09-20T04:57:23.582Z,71.49
2022-09-20T05:00:05.479Z,71.48
2022-09-20T05:02:40.138Z,70.81
2022-09-20T05:05:25.135Z,71.33
2022-09-20T05:08:10.835Z,71.71
2022-09-20T05:10:49.235Z,71.81
2022-09-20T05:13:28.619Z,71.24
2022-09-20T05:16:24.011Z,71.59
2022-09-20T05:19:05.390Z,71.35
2022-09-20T05:21:50.660Z,71.22
2022-09-20T05:24:40.709Z,70.84
2022-09-20T05:27:19.721Z,69.97
2022-09-20T05:30:05.369Z,70.54
2022-09-20T05:32:52.011Z,70.35
2022-09-20T05:35:25.655Z,70.15
2022-09-20T05:38:16.775Z,70.44
2022-09-20T05:41:07.661Z,69.61
2022-09-20T05:43:43.737Z,69.43
2022-09-20T05:46:22.332Z,69.60
2022-09-20T05:49:03.926Z,69.63
2022-09-20T05:52:05.703Z,69.11
2022-09-20T05:54:47.482Z,68.37
2022-09-20T05:57:37.208Z,68.38
2022-09-20T06:00:14.565Z,68.74
2022-09-20T06:02:41.129Z,68.46
2022-09-20T06:05:19.393Z,68.32
2022-09-20T06:08:12.875Z,67.99
2022-09-20T06:11:02.445Z,67.91
2022-09-20T06:14:00.728Z,67.34
2022-09-20T06:17:07.787Z,67.63
2022-09-20T06:19:45.733Z,66.96
2022-09-20T06:22:36.690Z,66.82
2022-09-20T06:25:26.809Z,66.87
2022-09-20T06:27:58.080Z,66.24
2022-09-20T06:30:27.227Z,65.83
2022-09-20T06:33:05.971Z,65.42
2022-09-20T06:35:42.956Z,65.77
2022-09-20T06:38:31.309Z,65.43
2022-09-20T06:41:01.011Z,65.26
2022-09-20T06:43:29.238Z,65.56
2022-09-20T06:45:58.111Z,65.34
2022-09-20T06:48:25.270Z,64.39
2022-09-20T06:50:52.417Z,64.46
2022-09-20T06:53:29.778Z,64.69
2022-09-20T06:55:57.529Z,64.18
2022-09-20T06:58:24.076Z,63.89
2022-09-20T07:00:50.897Z,63.48
2022-09-20T07:03:19.615Z,62.67
2022-09-20T07:05:46.498Z,61.24
2022-09-20T07:08:14.513Z,61.99
2022-09-20T07:10:41.560Z,61.89
2022-09-20T07:13:11.192Z,61.76
2022-09-20T07:15:38.822Z,62.16
2022-09-20T07:18:05.903Z,60.80
2022-09-20T07:20:32.853Z,60.56
2022-09-20T07:22:59.857Z,59.63
2022-09-20T07:25:26.484Z,59.88
2022-09-20T07:27:53.105Z,59.35
2022-09-20T07:30:20.341Z,57.98
2022-09-20T07:32:47.016Z,57.88
2022-09-20T07:35:13.899Z,57.75
2022-09-20T07:37:42.823Z,57.95
2022-09-20T07:40:11.354Z,57.76
2022-09-20T07:42:38.126Z,57.96
2022-09-20T07:45:05.230Z,58.55
2022-09-20T07:47:33.158Z,58.95
2022-09-20T07:49:59.774Z,57.98
2022-09-20T07:52:27.634Z,58.33
2022-09-20T07:54:54.428Z,58.42
2022-09-20T07:57:20.985Z,57.69
2022-09-20T07:59:47.616Z,56.92
2022-09-20T08:02:16.010Z,57.04
2022-09-20T08:04:43.351Z,57.00
2022-09-20T08:07:10.916Z,55.77
2022-09-20T08:09:37.483Z,55.83
2022-09-20T08:14:53.329Z,54.63
2022-09-20T08:17:20.011Z,54.50
2022-09-20T08:19:46.628Z,53.64
2022-09-20T08:22:14.836Z,52.96
2022-09-20T08:24:41.398Z,54.04
2022-09-20T08:27:09.046Z,54.12
2022-09-20T08:29:35.971Z,53.86
2022-09-20T08:32:03.321Z,53.65
2022-09-20T08:34:29.986Z,52.49
2022-09-20T08:36:56.968Z,52.58
2022-09-20T08:42:22.284Z,53.75
2022-09-20T08:45:00.185Z,53.80
2022-09-20T08:47:36.793Z,53.92
2022-09-20T08:50:11.588Z,53.12
2022-09-20T08:52:41.410Z,52.88
2022-09-20T08:55:17.943Z,52.23
2022-09-20T08:57:49.256Z,52.63
2022-09-20T09:00:21.988Z,52.79
2022-09-20T09:02:54.191Z,52.79
2022-09-20T09:05:43.579Z,52.47
2022-09-20T09:08:17.048Z,52.18
2022-09-20T09:10:51.404Z,49.64
2022-09-20T09:13:34.934Z,50.81
2022-09-20T09:16:09.935Z,51.67
2022-09-20T09:18:42.027Z,51.58
2022-09-20T09:21:10.509Z,52.16
2022-09-20T09:23:41.495Z,51.10
2022-09-20T09:26:17.622Z,51.19
2022-09-20T09:28:44.199Z,49.92
2022-09-20T09:31:23.376Z,49.13
2022-09-20T09:33:50.049Z,51.18
2022-09-20T09:36:23.602Z,50.48
2022-09-20T09:38:50.555Z,48.67
2022-09-20T09:41:29.897Z,43.66
2022-09-20T09:44:20.740Z,44.39
2022-09-20T09:46:50.188Z,42.56
2022-09-20T09:49:22.771Z,40.40
2022-09-20T09:52:26.901Z,43.89
2022-09-20T09:55:04.012Z,46.89
2022-09-20T09:57:55.048Z,47.54
2022-09-20T10:00:28.127Z,49.45
2022-09-20T10:03:18.084Z,48.19
2022-09-20T10:06:01.872Z,44.41
2022-09-20T10:08:40.938Z,44.87
2022-09-20T10:11:48.119Z,46.63
2022-09-20T10:14:24.052Z,47.17
2022-09-20T10:17:05.885Z,48.78
2022-09-20T10:19:35.076Z,49.43
2022-09-20T10:22:20.452Z,49.59
2022-09-20T10:25:26.239Z,49.81
2022-09-20T10:28:39.171Z,50.16
2022-09-20T10:31:24.997Z,51.25
2022-09-20T10:34:07.574Z,48.93
2022-09-20T10:36:34.231Z,49.33
2022-09-20T10:39:11.015Z,48.75
2022-09-20T10:41:58.777Z,49.67
2022-09-20T10:44:47.208Z,50.70
2022-09-20T10:47:20.447Z,51.12
2022-09-20T10:50:09.219Z,49.01
2022-09-20T10:52:51.271Z,46.75
2022-09-20T10:55:47.481Z,46.95
2022-09-20T10:58:33.523Z,46.94
2022-09-20T11:01:08.700Z,47.66
2022-09-20T11:04:01.195Z,48.51
2022-09-20T11:06:44.239Z,49.08
2022-09-20T11:09:17.594Z,48.81
2022-09-20T11:11:49.484Z,49.96
2022-09-20T11:14:21.757Z,49.06
2022-09-20T11:16:53.440Z,49.07
2022-09-20T11:19:44.519Z,47.69
2022-09-20T11:22:34.822Z,47.52
2022-09-20T11:25:23.976Z,47.42
2022-09-20T11:28:02.281Z,45.08
2022-09-20T11:30:30.395Z,44.10
2022-09-20T11:32:59.774Z,37.31
2022-09-20T11:35:41.298Z,37.96
2022-09-20T11:38:22.418Z,36.41
2022-09-20T11:41:02.500Z,32.50
2022-09-20T11:43:31.162Z,33.32
2022-09-20T11:46:06.934Z,36.12
2022-09-20T11:48:46.539Z,38.41
2022-09-20T11:51:35.734Z,40.68
2022-09-20T11:54:20.038Z,42.67
2022-09-20T11:56:57.992Z,43.66
2022-09-20T11:59:35.386Z,37.54
2022-09-20T12:02:05.458Z,32.56
2022-09-20T12:04:35.712Z,31.72
2022-09-20T12:07:11.559Z,29.18
2022-09-20T12:09:43.735Z,28.39
2022-09-20T12:12:31.486Z,28.31
2022-09-20T12:15:01.180Z,28.92
2022-09-20T12:17:45.759Z,27.59
2022-09-20T12:20:42.575Z,27.58
2022-09-20T12:23:43.488Z,30.47
2022-09-20T12:26:22.048Z,33.63
2022-09-20T12:28:52.901Z,34.62
2022-09-20T12:31:21.566Z,35.06
2022-09-20T12:34:00.144Z,37.03
2022-09-20T12:36:29.690Z,40.46
2022-09-20T12:39:05.445Z,40.51
2022-09-20T12:42:10.557Z,38.49
2022-09-20T12:45:27.479Z,37.61
2022-09-20T12:47:56.085Z,37.05
2022-09-20T12:50:42.435Z,37.13
2022-09-20T12:53:16.828Z,34.90
2022-09-20T12:56:07.705Z,31.90
2022-09-20T12:58:51.534Z,33.01
2022-09-20T13:01:18.518Z,36.99
2022-09-20T13:03:50.517Z,40.06
2022-09-20T13:06:20.468Z,38.24
2022-09-20T13:09:04.986Z,34.16
2022-09-20T13:11:52.835Z,32.36
2022-09-20T13:14:29.007Z,29.86
2022-09-20T13:17:17.855Z,29.60
2022-09-20T13:19:49.951Z,28.92
2022-09-20T13:22:23.773Z,27.78
2022-09-20T13:24:55.230Z,28.20
2022-09-20T13:27:30.133Z,29.86
2022-09-20T13:30:32.682Z,28.61
2022-09-20T13:33:23.490Z,27.67
2022-09-20T13:35:58.232Z,28.70
2022-09-20T13:38:33.954Z,29.76
2022-09-20T13:41:09.112Z,33.32
2022-09-20T13:43:44.471Z,36.96
2022-09-20T13:46:22.427Z,38.60
2022-09-20T13:48:54.482Z,40.94
2022-09-20T13:51:28.430Z,40.83
2022-09-20T13:54:34.266Z,42.13
2022-09-20T13:57:04.179Z,43.35
2022-09-20T13:59:42.150Z,44.36
2022-09-20T14:02:22.474Z,44.68
2022-09-20T14:04:51.425Z,45.68
2022-09-20T14:07:18.181Z,46.02
2022-09-20T14:09:45.743Z,46.78
2022-09-20T14:12:14.134Z,47.45
2022-09-20T14:14:41.795Z,47.71
2022-09-20T14:17:09.886Z,48.18
2022-09-20T14:19:42.170Z,48.66
2022-09-20T14:22:18.361Z,49.11
2022-09-20T14:25:02.355Z,49.43
2022-09-20T14:27:31.236Z,50.46
2022-09-20T14:29:58.615Z,50.22
2022-09-20T14:32:34.369Z,50.60
2022-09-20T14:35:12.884Z,51.43
2022-09-20T14:37:45.677Z,52.00
2022-09-20T14:40:30.518Z,52.38
2022-09-20T14:43:00.815Z,50.98
2022-09-20T14:45:35.879Z,51.56
2022-09-20T14:48:11.233Z,50.39
2022-09-20T14:51:16.381Z,50.24
2022-09-20T14:53:44.168Z,52.48
2022-09-20T14:56:12.955Z,53.05
2022-09-20T14:59:06.720Z,53.36
2022-09-20T15:01:35.955Z,54.37
2022-09-20T15:04:08.887Z,55.88
2022-09-20T15:06:39.030Z,56.85
2022-09-20T15:09:06.228Z,58.33
2022-09-20T15:11:32.990Z,58.93
2022-09-20T15:13:59.794Z,59.55
2022-09-20T15:16:28.645Z,60.02
2022-09-20T15:18:56.249Z,60.48
2022-09-20T15:21:22.843Z,61.00
2022-09-20T15:23:49.407Z,61.34
2022-09-20T15:26:16.798Z,61.95
2022-09-20T15:28:43.354Z,62.54
2022-09-20T15:31:10.491Z,63.09
2022-09-20T15:33:37.736Z,63.54
2022-09-20T15:36:04.934Z,63.82
2022-09-20T15:38:31.568Z,64.38
2022-09-20T15:41:01.751Z,64.71
2022-09-20T15:43:31.073Z,65.03
2022-09-20T15:46:16.766Z,65.30
2022-09-20T15:48:43.562Z,65.36
2022-09-20T15:51:12.208Z,65.98
2022-09-20T15:53:44.788Z,66.33
2022-09-20T15:56:21.140Z,66.99
2022-09-20T15:58:59.057Z,67.06
2022-09-20T16:01:33.741Z,67.28
2022-09-20T16:04:00.598Z,67.40
2022-09-20T16:06:27.249Z,67.79
2022-09-20T16:08:55.665Z,68.19
2022-09-20T16:11:23.795Z,68.61
2022-09-20T16:13:58.273Z,68.42
2022-09-20T16:16:26.972Z,68.47
2022-09-20T16:19:12.188Z,68.65
2022-09-20T16:21:40.605Z,68.94
2022-09-20T16:24:08.447Z,68.89
2022-09-20T16:26:36.193Z,68.83
2022-09-20T16:29:05.812Z,68.72
2022-09-20T16:31:41.081Z,68.71
2022-09-20T16:34:11.859Z,68.82
2022-09-20T16:36:38.922Z,69.04
2022-09-20T16:39:05.467Z,69.22
2022-09-20T16:41:32.505Z,69.78
2022-09-20T16:43:59.992Z,70.20
2022-09-20T16:46:28.481Z,70.69
2022-09-20T16:48:56.964Z,71.09
2022-09-20T16:51:26.085Z,71.62
2022-09-20T16:53:56.239Z,72.15
2022-09-20T16:56:27.562Z,72.56
2022-09-20T16:58:57.442Z,73.38
2022-09-20T17:01:24.239Z,73.53
2022-09-20T17:03:51.832Z,73.90
2022-09-20T17:06:19.279Z,74.11
2022-09-20T17:08:48.704Z,74.59
2022-09-20T17:11:40.890Z,74.95
2022-09-20T17:14:09.203Z,75.17
2022-09-20T17:16:38.322Z,75.25
2022-09-20T17:19:07.992Z,75.57
2022-09-20T17:21:37.253Z,76.11
2022-09-20T17:24:07.161Z,76.08
2022-09-20T17:26:40.385Z,76.44
2022-09-20T17:29:09.511Z,76.43
2022-09-20T17:31:39.146Z,76.66
2022-09-20T17:34:09.575Z,76.96
2022-09-20T17:36:44.390Z,76.88
2022-09-20T17:39:14.463Z,77.44
2022-09-20T17:41:42.948Z,77.43
2022-09-20T17:44:15.941Z,77.60
2022-09-20T17:46:44.659Z,78.05
2022-09-20T17:49:14.056Z,78.12
2022-09-20T17:51:55.969Z,78.32
2022-09-20T17:54:24.598Z,78.46
2022-09-20T17:56:53.884Z,78.69
2022-09-20T17:59:20.804Z,78.56
2022-09-20T18:01:50.015Z,78.84
2022-09-20T18:04:16.970Z,79.10
2022-09-20T18:06:51.318Z,79.24
2022-09-20T18:09:24.228Z,79.45
2022-09-20T18:11:53.101Z,79.36
2022-09-20T18:14:25.968Z,79.79
2022-09-20T18:16:55.121Z,79.59
2022-09-20T18:19:22.887Z,80.34
2022-09-20T18:21:50.071Z,80.22
2022-09-20T18:24:16.854Z,80.84
2022-09-20T18:26:44.275Z,80.96
2022-09-20T18:29:12.517Z,81.00
2022-09-20T18:31:46.931Z,81.36
2022-09-20T18:34:17.986Z,81.95
2022-09-20T18:36:52.600Z,81.64
2022-09-20T18:39:23.117Z,81.76
2022-09-20T18:41:50.557Z,81.96
2022-09-20T18:44:19.060Z,81.92
2022-09-20T18:46:46.398Z,82.40
2022-09-20T18:49:15.148Z,82.25
2022-09-20T18:51:43.329Z,82.32
2022-09-20T18:54:11.217Z,82.84
2022-09-20T18:56:39.968Z,83.19
2022-09-20T18:59:18.614Z,83.49
2022-09-20T19:01:58.401Z,83.44
2022-09-20T19:04:40.799Z,83.92
2022-09-20T19:07:29.871Z,84.18
2022-09-20T19:10:05.677Z,84.46
2022-09-20T19:12:51.775Z,84.43
2022-09-20T19:15:24.450Z,84.32
2022-09-20T19:18:14.819Z,84.82
2022-09-20T19:21:04.292Z,84.70
2022-09-20T19:23:41.050Z,85.33
2022-09-20T19:26:21.148Z,85.19
2022-09-20T19:28:55.116Z,85.48
2022-09-20T19:31:28.439Z,85.14
2022-09-20T19:33:56.910Z,85.50
2022-09-20T19:36:25.330Z,85.96
2022-09-20T19:39:10.184Z,85.79
2022-09-20T19:41:50.675Z,85.90
2022-09-20T19:44:36.045Z,86.08
2022-09-20T19:47:37.403Z,86.25
2022-09-20T19:50:44.804Z,86.30
2022-09-20T19:53:12.411Z,86.41
2022-09-20T19:55:39.749Z,86.89
2022-09-20T19:58:06.677Z,86.74
2022-09-20T20:00:33.576Z,86.76
2022-09-20T20:03:00.526Z,87.47
2022-09-20T20:05:29.255Z,86.92
2022-09-20T20:07:55.818Z,87.45
2022-09-20T20:10:40.693Z,87.45
2022-09-20T20:13:47.714Z,87.60
2022-09-20T20:16:30.889Z,87.63
2022-09-20T20:19:24.938Z,87.64
2022-09-20T20:22:03.343Z,87.81
2022-09-20T20:24:56.755Z,87.93
2022-09-20T20:27:26.230Z,88.08
2022-09-20T20:29:52.781Z,88.33
2022-09-20T20:32:19.346Z,88.36
2022-09-20T20:34:47.009Z,88.32
2022-09-20T20:37:13.998Z,88.62
2022-09-20T20:39:40.558Z,88.63
2022-09-20T20:42:08.554Z,88.55
2022-09-20T20:44:35.273Z,88.68
2022-09-20T20:47:08.120Z,88.31
2022-09-20T20:49:36.017Z,88.27
2022-09-20T20:52:04.919Z,88.84
2022-09-20T20:54:32.695Z,88.97
2022-09-20T20:57:01.831Z,88.84
2022-09-20T20:59:28.491Z,88.63
2022-09-20T21:01:55.104Z,88.74
2022-09-20T21:04:22.027Z,88.88
2022-09-20T21:06:50.182Z,88.63
2022-09-20T21:09:16.878Z,89.03
2022-09-20T21:11:44.550Z,88.98
2022-09-20T21:14:12.659Z,89.54
2022-09-20T21:16:45.148Z,88.87
2022-09-20T21:19:18.337Z,89.19
2022-09-20T21:21:47.851Z,89.43
2022-09-20T21:24:17.384Z,88.91
2022-09-20T21:26:46.333Z,89.30
2022-09-20T21:29:15.690Z,89.49
2022-09-20T21:31:44.691Z,89.30
2022-09-20T21:34:12.660Z,89.38
2022-09-20T21:36:41.593Z,89.34
2022-09-20T21:39:08.394Z,89.29
2022-09-20T21:41:38.341Z,89.60
2022-09-20T21:44:12.269Z,89.49
2022-09-20T21:46:41.991Z,89.86
2022-09-20T21:49:11.030Z,89.94
2022-09-20T21:51:38.783Z,90.19
2022-09-20T21:54:05.831Z,90.14
2022-09-20T21:56:35.368Z,89.63
2022-09-20T21:59:04.121Z,90.04
2022-09-20T22:01:36.182Z,89.43
2022-09-20T22:04:12.385Z,89.47
2022-09-20T22:06:41.120Z,89.46
2022-09-20T22:09:16.024Z,90.22
2022-09-20T22:11:47.681Z,89.86
2022-09-20T22:14:17.462Z,89.99
2022-09-20T22:16:46.001Z,90.00
2022-09-20T22:19:15.106Z,90.03
2022-09-20T22:21:44.060Z,89.75
2022-09-20T22:24:12.442Z,89.89
2022-09-20T22:26:43.433Z,89.65
2022-09-20T22:29:10.367Z,89.85
2022-09-20T22:31:45.107Z,90.14
2022-09-20T22:34:17.607Z,90.02
2022-09-20T22:36:44.762Z,90.27
2022-09-20T22:39:13.364Z,90.51
2022-09-20T22:41:41.465Z,90.32
2022-09-20T22:44:09.172Z,90.23
2022-09-20T22:46:36.538Z,90.58
2022-09-20T22:49:07.355Z,89.84
2022-09-20T22:51:34.403Z,89.92
2022-09-20T22:54:05.483Z,89.46
2022-09-20T22:56:33.093Z,89.47
2022-09-20T22:59:11.517Z,89.62
2022-09-20T23:01:43.633Z,89.63
2022-09-20T23:04:19.738Z,89.78
2022-09-20T23:06:55.094Z,90.08
2022-09-20T23:09:27.914Z,90.19
2022-09-20T23:11:54.540Z,90.32
2022-09-20T23:14:22.165Z,90.06
2022-09-20T23:16:49.578Z,90.61
2022-09-20T23:19:16.748Z,89.82
2022-09-20T23:21:44.110Z,89.85
2022-09-20T23:24:13.347Z,90.07
2022-09-20T23:26:41.442Z,90.13
2022-09-20T23:29:12.974Z,90.24
2022-09-20T23:31:45.819Z,90.16
2022-09-20T23:34:13.664Z,90.28
2022-09-20T23:36:41.459Z,90.46
2022-09-20T23:39:10.302Z,90.19
2022-09-20T23:41:37.402Z,89.82
2022-09-20T23:44:10.279Z,89.83
2022-09-20T23:46:38.593Z,89.88
2022-09-20T23:49:06.536Z,90.08
2022-09-20T23:51:35.334Z,90.33
2022-09-20T23:54:02.766Z,89.91
2022-09-20T23:56:30.100Z,89.85
2022-09-20T23:58:56.743Z,90.10
